Time;durP1;ratioP1;P1;durP2;ratioP2;P2;SDS_P1;SDS_P2;PMS_P1;PMS_P2;Temp;Humidity;BMP_temperature;BMP_pressure;BME280_temperature;BME280_humidity;BME280_pressure;Samples;Min_cycle;Max_cycle;Signal;HPM_P1;HPM_P2
2024/02/16 00:01:48;;;;;;;103.50;77.70;;;;;;;5.55;100.00;99458.94;109534;1252;67047;-74
2024/02/16 00:04:14;;;;;;;103.40;79.10;;;;;;;5.50;100.00;99455.25;109362;1252;59453;-75
2024/02/16 00:06:41;;;;;;;96.70;74.60;;;;;;;5.46;100.00;99454.34;109468;1252;64050;-75
2024/02/16 00:09:09;;;;;;;104.90;80.30;;;;;;;5.40;100.00;99452.10;109235;1253;59893;-75
2024/02/16 00:11:37;;;;;;;94.40;75.30;;;;;;;5.33;100.00;99452.17;109563;1253;59037;-75
2024/02/16 00:14:03;;;;;;;98.40;77.10;;;;;;;5.28;100.00;99454.15;109521;1252;65976;-76
2024/02/16 00:16:30;;;;;;;100.90;77.00;;;;;;;5.21;100.00;99449.45;109557;1252;59997;-75
2024/02/16 00:18:57;;;;;;;97.20;76.20;;;;;;;5.16;100.00;99447.89;109282;1253;65059;-75
2024/02/16 00:21:24;;;;;;;100.20;74.90;;;;;;;5.11;100.00;99449.48;109536;1252;59287;-75
2024/02/16 00:23:51;;;;;;;99.60;75.10;;;;;;;5.06;100.00;99450.02;109498;1252;59210;-76
2024/02/16 00:26:18;;;;;;;95.50;77.20;;;;;;;5.02;100.00;99446.98;109483;1252;66050;-75
2024/02/16 00:28:44;;;;;;;96.40;75.40;;;;;;;4.99;100.00;99445.72;109473;1252;60542;-76
2024/02/16 00:31:11;;;;;;;96.80;77.60;;;;;;;4.95;100.00;99448.33;109442;1254;65057;-76
2024/02/16 00:33:38;;;;;;;93.00;75.50;;;;;;;4.91;100.00;99448.11;109448;1253;58973;-75
2024/02/16 00:36:04;;;;;;;96.70;75.60;;;;;;;4.86;100.00;99448.80;109439;1252;58954;-75
2024/02/16 00:38:31;;;;;;;100.70;76.20;;;;;;;4.81;100.00;99447.93;109139;1252;65688;-75
2024/02/16 00:40:58;;;;;;;103.20;76.10;;;;;;;4.78;100.00;99443.83;109413;1253;60085;-75
2024/02/16 00:43:25;;;;;;;102.50;78.00;;;;;;;4.75;100.00;99444.31;109423;1252;64946;-75
2024/02/16 00:45:51;;;;;;;95.60;75.40;;;;;;;4.70;100.00;99444.29;109406;1256;58941;-76
2024/02/16 00:48:18;;;;;;;101.60;77.40;;;;;;;4.68;100.00;99447.21;109137;1253;58992;-76
2024/02/16 00:50:45;;;;;;;94.90;75.30;;;;;;;4.64;100.00;99444.16;109213;1253;65544;-75
2024/02/16 00:53:11;;;;;;;103.00;77.40;;;;;;;4.59;100.00;99442.04;109457;1252;60946;-75
2024/02/16 00:55:41;;;;;;;98.40;75.80;;;;;;;4.55;100.00;99439.36;109101;1260;64991;-75
2024/02/16 00:58:08;;;;;;;97.00;75.40;;;;;;;4.51;100.00;99438.99;109407;1253;59066;-76
2024/02/16 01:00:35;;;;;;;93.70;74.10;;;;;;;4.47;100.00;99439.14;109427;1255;58943;-75
2024/02/16 01:03:02;;;;;;;97.50;73.70;;;;;;;4.43;100.00;99437.35;109396;1256;67019;-76
2024/02/16 01:05:29;;;;;;;89.70;70.20;;;;;;;4.39;100.00;99436.59;109191;1253;60824;-75
2024/02/16 01:07:56;;;;;;;91.30;69.20;;;;;;;4.35;100.00;99437.09;109400;1253;64023;-75
2024/02/16 01:10:22;;;;;;;93.90;69.10;;;;;;;4.29;100.00;99438.50;109469;1256;59040;-76
2024/02/16 01:12:51;;;;;;;84.40;68.00;;;;;;;4.25;100.00;99438.84;109418;1253;58942;-77
2024/02/16 01:15:18;;;;;;;89.90;67.60;;;;;;;4.20;100.00;99439.52;109471;1252;66982;-76
2024/02/16 01:17:45;;;;;;;87.50;66.80;;;;;;;4.18;100.00;99434.67;109432;1254;60846;-76
2024/02/16 01:20:12;;;;;;;85.70;66.10;;;;;;;4.14;100.00;99434.98;109475;1252;62797;-76
2024/02/16 01:22:41;;;;;;;83.40;65.50;;;;;;;4.09;100.00;99431.29;109369;1253;59082;-75
2024/02/16 01:25:08;;;;;;;82.50;63.20;;;;;;;4.05;100.00;99427.19;109397;1256;58888;-76
2024/02/16 01:27:36;;;;;;;82.20;60.50;;;;;;;4.02;100.00;99425.20;109398;1253;66036;-76
2024/02/16 01:30:03;;;;;;;77.60;59.50;;;;;;;3.98;100.00;99424.96;109144;1252;60150;-74
2024/02/16 01:32:29;;;;;;;73.20;59.20;;;;;;;3.95;100.00;99426.46;109433;1253;64967;-76
2024/02/16 01:34:56;;;;;;;76.70;60.70;;;;;;;3.93;100.00;99426.86;109408;1254;59151;-74
2024/02/16 01:37:23;;;;;;;74.90;59.70;;;;;;;3.91;100.00;99424.30;109458;1252;58826;-75
2024/02/16 01:39:49;;;;;;;72.60;58.40;;;;;;;3.90;100.00;99421.70;109447;1254;65751;-75
2024/02/16 01:42:16;;;;;;;79.90;60.10;;;;;;;3.89;100.00;99420.17;109444;1253;61045;-76
2024/02/16 01:44:43;;;;;;;78.10;60.80;;;;;;;3.87;100.00;99421.11;109117;1254;72976;-76
2024/02/16 01:47:10;;;;;;;80.20;62.20;;;;;;;3.85;100.00;99420.30;109437;1253;59059;-75
2024/02/16 01:49:36;;;;;;;77.10;62.80;;;;;;;3.83;100.00;99419.48;109436;1253;59040;-74
2024/02/16 01:52:04;;;;;;;83.30;66.50;;;;;;;3.80;100.00;99418.89;109404;1255;75371;-75
2024/02/16 01:54:31;;;;;;;88.60;69.20;;;;;;;3.79;100.00;99416.11;109447;1254;61065;-75
2024/02/16 01:56:59;;;;;;;88.90;70.10;;;;;;;3.78;100.00;99413.66;107159;1253;1003078;-76
2024/02/16 01:59:26;;;;;;;94.30;73.50;;;;;;;3.79;100.00;99412.24;109405;1253;58975;-76
2024/02/16 02:01:53;;;;;;;100.30;76.10;;;;;;;3.80;100.00;99412.20;109402;1253;58968;-75
2024/02/16 02:04:19;;;;;;;96.80;76.80;;;;;;;3.79;100.00;99413.11;109392;1257;67011;-76
2024/02/16 02:06:46;;;;;;;97.40;76.90;;;;;;;3.78;100.00;99411.90;109411;1254;61408;-74
2024/02/16 02:09:13;;;;;;;95.00;77.10;;;;;;;3.78;100.00;99414.71;109238;1254;65136;-75
2024/02/16 02:11:40;;;;;;;105.90;77.70;;;;;;;3.77;100.00;99412.11;109433;1253;58993;-75
2024/02/16 02:14:06;;;;;;;104.10;79.40;;;;;;;3.75;100.00;99409.73;109399;1254;58982;-76
2024/02/16 02:16:33;;;;;;;103.00;77.70;;;;;;;3.73;100.00;99407.68;109479;1253;67062;-78
2024/02/16 02:19:00;;;;;;;100.20;79.30;;;;;;;3.70;100.00;99404.44;109491;1252;60314;-76
2024/02/16 02:21:27;;;;;;;96.60;76.50;;;;;;;3.68;100.00;99405.21;109504;1253;64791;-76
2024/02/16 02:23:53;;;;;;;103.20;80.50;;;;;;;3.63;100.00;99405.53;109487;1254;59056;-78
2024/02/16 02:26:21;;;;;;;96.90;76.80;;;;;;;3.59;100.00;99404.45;109275;1254;59339;-75
2024/02/16 02:28:48;;;;;;;92.60;72.00;;;;;;;3.58;100.00;99401.66;109535;1253;65825;-75
2024/02/16 02:31:14;;;;;;;97.60;75.60;;;;;;;3.55;100.00;99402.48;109282;1253;58972;-76
2024/02/16 02:33:41;;;;;;;95.50;77.10;;;;;;;3.51;100.00;99402.59;109239;1254;63943;-76
2024/02/16 02:36:08;;;;;;;95.10;74.80;;;;;;;3.47;100.00;99399.01;109455;1252;59093;-75
2024/02/16 02:38:34;;;;;;;92.60;75.00;;;;;;;3.44;100.00;99396.46;109459;1252;58916;-75
2024/02/16 02:41:03;;;;;;;95.60;76.70;;;;;;;3.44;100.00;99388.21;109141;1253;66258;-76
2024/02/16 02:43:30;;;;;;;95.90;77.50;;;;;;;3.45;100.00;99387.14;109299;1254;60164;-75
2024/02/16 02:45:56;;;;;;;94.80;71.90;;;;;;;3.43;100.00;99382.80;109451;1253;64572;-75
2024/02/16 02:48:24;;;;;;;96.60;73.50;;;;;;;3.43;100.00;99388.98;109461;1253;58897;-75
2024/02/16 02:50:50;;;;;;;93.60;73.70;;;;;;;3.41;100.00;99389.01;109455;1254;58868;-76
2024/02/16 02:53:18;;;;;;;89.50;70.20;;;;;;;3.39;100.00;99391.02;109435;1254;66750;-74
2024/02/16 02:55:44;;;;;;;88.10;70.90;;;;;;;3.35;100.00;99391.66;109511;1253;60801;-76
2024/02/16 02:58:11;;;;;;;91.30;70.70;;;;;;;3.33;100.00;99392.27;108664;1254;1002897;-76
2024/02/16 03:00:38;;;;;;;80.40;65.80;;;;;;;3.31;100.00;99388.46;109397;1254;58991;-76
2024/02/16 03:03:04;;;;;;;89.30;69.10;;;;;;;3.29;100.00;99393.80;109462;1253;58937;-76
2024/02/16 03:05:31;;;;;;;83.20;65.60;;;;;;;3.27;100.00;99396.13;109169;1254;65956;-76
2024/02/16 03:07:58;;;;;;;85.60;65.90;;;;;;;3.26;100.00;99395.81;109489;1254;61425;-75
2024/02/16 03:10:25;;;;;;;91.40;71.60;;;;;;;3.23;100.00;99401.00;109424;1252;63684;-76
2024/02/16 03:12:52;;;;;;;81.30;65.00;;;;;;;3.22;100.00;99402.27;109447;1253;59005;-76
2024/02/16 03:15:18;;;;;;;79.50;62.00;;;;;;;3.19;100.00;99400.94;109453;1253;58915;-75
2024/02/16 03:17:45;;;;;;;81.40;62.30;;;;;;;3.18;100.00;99405.00;109463;1254;67027;-75
2024/02/16 03:20:12;;;;;;;77.90;60.20;;;;;;;3.18;100.00;99401.66;109476;1253;60121;-75
2024/02/16 03:22:39;;;;;;;77.40;59.00;;;;;;;3.18;100.00;99403.95;109415;1252;64064;-75
2024/02/16 03:25:06;;;;;;;70.30;56.80;;;;;;;3.18;100.00;99402.22;109434;1253;59206;-75
2024/02/16 03:27:33;;;;;;;70.70;57.10;;;;;;;3.16;100.00;99400.15;109454;1253;58796;-76
2024/02/16 03:30:00;;;;;;;70.80;54.60;;;;;;;3.15;100.00;99401.76;109457;1253;65947;-76
2024/02/16 03:32:27;;;;;;;70.70;56.70;;;;;;;3.14;100.00;99403.73;109517;1252;60080;-76
2024/02/16 03:34:53;;;;;;;73.00;55.20;;;;;;;3.13;100.00;99404.29;109269;1254;65118;-76
2024/02/16 03:37:20;;;;;;;67.00;54.10;;;;;;;3.12;100.00;99402.73;109421;1253;59315;-76
2024/02/16 03:39:47;;;;;;;70.00;55.80;;;;;;;3.12;100.00;99402.57;109430;1253;59011;-75
2024/02/16 03:42:13;;;;;;;70.10;56.10;;;;;;;3.09;100.00;99400.70;109444;1252;66954;-75
2024/02/16 03:44:40;;;;;;;69.00;56.30;;;;;;;3.07;100.00;99398.67;108403;1254;1002290;-76
2024/02/16 03:47:08;;;;;;;72.20;56.80;;;;;;;3.06;100.00;99399.76;109153;1254;65005;-76
2024/02/16 03:49:35;;;;;;;71.60;56.00;;;;;;;3.05;100.00;99398.73;109438;1253;58971;-75
2024/02/16 03:52:02;;;;;;;74.80;57.60;;;;;;;3.05;100.00;99396.12;109444;1253;59048;-76
2024/02/16 03:54:29;;;;;;;68.90;55.00;;;;;;;3.04;100.00;99400.52;109189;1253;67076;-76
2024/02/16 03:56:56;;;;;;;72.10;57.20;;;;;;;3.05;100.00;99398.57;109460;1254;61056;-76
2024/02/16 03:59:23;;;;;;;73.90;58.80;;;;;;;3.05;100.00;99402.41;109439;1253;64211;-77
2024/02/16 04:01:51;;;;;;;76.60;59.30;;;;;;;3.04;100.00;99406.66;109457;1252;58998;-75
2024/02/16 04:04:18;;;;;;;74.40;57.10;;;;;;;3.03;100.00;99402.47;109425;1253;58918;-76
2024/02/16 04:06:44;;;;;;;76.70;59.20;;;;;;;3.03;100.00;99410.20;109443;1253;67427;-76
2024/02/16 04:09:12;;;;;;;69.00;56.20;;;;;;;3.01;100.00;99412.72;109409;1254;61626;-75
2024/02/16 04:11:38;;;;;;;76.40;59.50;;;;;;;2.99;100.00;99409.26;109417;1253;64080;-76
2024/02/16 04:14:05;;;;;;;82.00;61.50;;;;;;;2.99;100.00;99409.61;109432;1253;58944;-75
2024/02/16 04:16:32;;;;;;;78.40;61.80;;;;;;;3.00;100.00;99413.97;109514;1253;59048;-75
2024/02/16 04:18:58;;;;;;;82.20;59.50;;;;;;;2.99;100.00;99413.48;109477;1252;66082;-76
2024/02/16 04:21:25;;;;;;;80.40;59.30;;;;;;;2.99;100.00;99415.23;109372;1254;59736;-75
2024/02/16 04:23:52;;;;;;;76.60;58.40;;;;;;;3.00;100.00;99412.58;109459;1253;64783;-75
2024/02/16 04:26:19;;;;;;;73.30;56.00;;;;;;;3.00;100.00;99412.56;109483;1253;59002;-76
2024/02/16 04:28:45;;;;;;;73.40;57.30;;;;;;;2.99;100.00;99412.94;108670;1253;1002304;-75
2024/02/16 04:31:12;;;;;;;75.70;56.20;;;;;;;2.97;100.00;99412.47;109421;1253;67097;-76
2024/02/16 04:33:38;;;;;;;75.20;55.10;;;;;;;2.96;100.00;99413.41;109441;1253;60196;-75
2024/02/16 04:36:07;;;;;;;73.90;56.10;;;;;;;2.94;100.00;99416.61;109390;1254;65122;-75
2024/02/16 04:38:33;;;;;;;69.40;53.70;;;;;;;2.93;100.00;99411.91;109360;1253;58862;-77
2024/02/16 04:41:00;;;;;;;66.40;53.50;;;;;;;2.92;100.00;99409.80;109430;1253;59075;-76
2024/02/16 04:43:26;;;;;;;76.30;58.70;;;;;;;2.91;100.00;99411.95;109372;1252;67147;-76
2024/02/16 04:45:54;;;;;;;60.80;48.80;;;;;;;2.89;100.00;99407.11;109421;1253;60122;-76
2024/02/16 04:48:21;;;;;;;68.70;54.20;;;;;;;2.89;100.00;99409.74;109429;1253;64038;-76
2024/02/16 04:50:47;;;;;;;72.70;56.20;;;;;;;2.86;100.00;99404.38;109399;1254;58901;-76
2024/02/16 04:53:14;;;;;;;71.30;56.30;;;;;;;2.84;100.00;99408.64;109170;1254;59049;-76
2024/02/16 04:55:40;;;;;;;67.00;52.80;;;;;;;2.82;100.00;99409.59;109441;1252;66118;-76
2024/02/16 04:58:09;;;;;;;72.60;56.20;;;;;;;2.80;100.00;99413.15;109418;1252;60339;-77
2024/02/16 05:00:37;;;;;;;73.30;57.10;;;;;;;2.78;100.00;99411.11;109449;1252;65159;-78
2024/02/16 05:03:04;;;;;;;80.70;61.60;;;;;;;2.76;100.00;99412.20;109465;1252;59034;-77
2024/02/16 05:05:31;;;;;;;70.30;56.50;;;;;;;2.75;100.00;99408.38;109580;1252;59053;-75
2024/02/16 05:07:58;;;;;;;74.20;56.50;;;;;;;2.74;100.00;99407.71;109571;1252;65783;-76
2024/02/16 05:10:24;;;;;;;77.70;58.90;;;;;;;2.73;100.00;99404.94;109600;1252;60069;-76
2024/02/16 05:12:51;;;;;;;72.00;57.10;;;;;;;2.71;100.00;99403.06;109616;1253;63987;-75
2024/02/16 05:15:17;;;;;;;71.30;55.40;;;;;;;2.70;100.00;99401.87;109619;1252;58941;-75
2024/02/16 05:17:48;;;;;;;73.20;56.10;;;;;;;2.68;100.00;99401.91;109662;1252;59234;-76
2024/02/16 05:20:19;;;;;;;;;;;;;;;2.66;100.00;99402.84;109608;1254;66012;-76
2024/02/16 05:22:46;;;;;;;72.30;54.90;;;;;;;2.64;100.00;99402.38;109574;1252;59976;-75
2024/02/16 05:25:13;;;;;;;79.60;58.90;;;;;;;2.62;100.00;99402.79;109597;1252;64281;-76
2024/02/16 05:27:40;;;;;;;84.00;63.20;;;;;;;2.61;100.00;99401.93;109314;1252;59065;-76
2024/02/16 05:30:09;;;;;;;78.70;62.50;;;;;;;2.61;100.00;99398.61;109446;1252;58969;-77
2024/02/16 05:32:37;;;;;;;77.80;61.10;;;;;;;2.59;100.00;99399.02;109438;1253;66242;-76
2024/02/16 05:35:14;;;;;;;75.50;59.60;;;;;;;2.56;100.00;99399.45;109459;1254;60245;-77
2024/02/16 05:37:44;;;;;;;78.20;59.20;;;;;;;2.54;100.00;99404.07;109417;1252;63993;-76
2024/02/16 05:40:28;;;;;;;76.30;59.00;;;;;;;2.53;100.00;99404.09;109417;1254;59000;-75
2024/02/16 05:42:59;;;;;;;76.20;59.30;;;;;;;2.52;100.00;99401.83;109404;1252;58856;-75
2024/02/16 05:45:26;;;;;;;74.70;56.10;;;;;;;2.51;100.00;99403.27;109476;1252;66237;-76
2024/02/16 05:47:53;;;;;;;78.40;58.40;;;;;;;2.51;100.00;99400.64;109429;1252;60230;-76
2024/02/16 05:50:21;;;;;;;79.20;59.90;;;;;;;2.51;100.00;99396.44;109391;1252;63690;-75
2024/02/16 05:52:49;;;;;;;79.90;58.90;;;;;;;2.52;100.00;99392.20;109394;1252;59042;-76
2024/02/16 05:55:18;;;;;;;80.30;59.50;;;;;;;2.52;100.00;99393.58;109429;1252;58925;-75
2024/02/16 05:57:45;;;;;;;67.40;52.70;;;;;;;2.53;100.00;99396.21;109421;1252;65847;-76
2024/02/16 06:00:13;;;;;;;74.90;58.50;;;;;;;2.53;100.00;99397.95;109453;1252;60463;-77
2024/02/16 06:02:40;;;;;;;73.10;59.10;;;;;;;2.53;100.00;99398.64;109007;1253;63311;-76
2024/02/16 06:05:07;;;;;;;75.20;59.90;;;;;;;2.54;100.00;99401.95;109430;1253;59046;-75
2024/02/16 06:07:37;;;;;;;76.60;59.60;;;;;;;2.56;100.00;99405.39;109425;1252;59066;-76
2024/02/16 06:10:07;;;;;;;73.60;58.00;;;;;;;2.58;100.00;99406.92;109438;1253;66011;-76
2024/02/16 06:12:36;;;;;;;70.10;55.00;;;;;;;2.61;100.00;99413.14;107649;1252;1002952;-76
2024/02/16 06:15:04;;;;;;;70.70;55.60;;;;;;;2.66;100.00;99413.55;109420;1252;64131;-76
2024/02/16 06:17:31;;;;;;;66.00;51.80;;;;;;;2.69;100.00;99415.05;109128;1252;59082;-75
2024/02/16 06:19:58;;;;;;;73.80;55.60;;;;;;;2.73;100.00;99414.77;109457;1252;58848;-75
2024/02/16 06:22:24;;;;;;;70.70;53.10;;;;;;;2.76;100.00;99413.97;109426;1252;67235;-75
2024/02/16 06:24:52;;;;;;;72.90;52.20;;;;;;;2.81;100.00;99419.98;109410;1253;61000;-76
2024/02/16 06:27:19;;;;;;;68.20;53.20;;;;;;;2.85;100.00;99420.38;109412;1252;65244;-76
2024/02/16 06:29:46;;;;;;;69.20;53.70;;;;;;;2.90;100.00;99421.10;109425;1252;58987;-76
2024/02/16 06:32:13;;;;;;;64.90;50.10;;;;;;;2.96;100.00;99422.86;109406;1252;58975;-76
2024/02/16 06:34:40;;;;;;;67.70;52.10;;;;;;;3.01;100.00;99422.54;109399;1252;65943;-76
2024/02/16 06:37:07;;;;;;;74.00;54.90;;;;;;;3.07;100.00;99427.11;109466;1252;60054;-77
2024/02/16 06:39:34;;;;;;;65.90;54.80;;;;;;;3.11;100.00;99426.98;109461;1252;63991;-77
2024/02/16 06:42:01;;;;;;;70.60;55.10;;;;;;;3.15;100.00;99426.89;109405;1252;59307;-75
2024/02/16 06:44:27;;;;;;;73.60;57.40;;;;;;;3.19;100.00;99429.39;109418;1252;58994;-76
2024/02/16 06:46:54;;;;;;;72.50;56.80;;;;;;;3.23;100.00;99435.05;109435;1252;65873;-76
2024/02/16 06:49:20;;;;;;;74.40;55.80;;;;;;;3.28;100.00;99434.91;109533;1252;60336;-75
2024/02/16 06:51:47;;;;;;;73.80;54.40;;;;;;;3.33;100.00;99432.99;109174;1252;65286;-75
2024/02/16 06:54:14;;;;;;;75.30;58.60;;;;;;;3.38;100.00;99433.73;109446;1252;59064;-75
2024/02/16 06:56:41;;;;;;;82.20;65.70;;;;;;;3.42;100.00;99433.63;109452;1252;59041;-76
2024/02/16 06:59:09;;;;;;;78.50;62.30;;;;;;;3.46;100.00;99430.50;109381;1252;65910;-76
2024/02/16 07:01:36;;;;;;;86.50;69.30;;;;;;;3.51;100.00;99431.59;109391;1252;60043;-77
2024/02/16 07:04:02;;;;;;;84.70;68.60;;;;;;;3.57;100.00;99435.44;109389;1252;65358;-75
2024/02/16 07:06:29;;;;;;;75.20;57.20;;;;;;;3.62;100.00;99432.29;109160;1252;59281;-75
2024/02/16 07:08:56;;;;;;;76.30;61.20;;;;;;;3.66;100.00;99434.78;109386;1252;58940;-76
2024/02/16 07:11:22;;;;;;;77.90;61.20;;;;;;;3.73;100.00;99435.29;109394;1253;67020;-76
2024/02/16 07:13:49;;;;;;;75.20;57.00;;;;;;;3.79;100.00;99433.68;109426;1252;60023;-75
2024/02/16 07:16:16;;;;;;;69.90;56.60;;;;;;;3.87;100.00;99432.91;109377;1252;65245;-76
2024/02/16 07:18:43;;;;;;;90.80;74.30;;;;;;;3.94;100.00;99432.48;109089;1257;58996;-74
2024/02/16 07:21:10;;;;;;;96.80;77.60;;;;;;;4.02;100.00;99429.75;109297;1252;59017;-75
2024/02/16 07:23:37;;;;;;;74.30;57.70;;;;;;;4.11;100.00;99430.17;109455;1252;66421;-75
2024/02/16 07:26:05;;;;;;;72.00;58.30;;;;;;;4.18;100.00;99432.73;109443;1252;59045;-74
2024/02/16 07:28:31;;;;;;;66.40;54.10;;;;;;;4.26;100.00;99434.74;109489;1254;65189;-78
2024/02/16 07:30:58;;;;;;;65.20;50.70;;;;;;;4.33;100.00;99436.25;109342;1256;59063;-75
2024/02/16 07:33:28;;;;;;;61.30;49.60;;;;;;;4.40;100.00;99433.04;109338;1254;59091;-74
2024/02/16 07:35:55;;;;;;;63.30;48.90;;;;;;;4.46;100.00;99431.61;109371;1254;67244;-74
2024/02/16 07:38:21;;;;;;;62.40;50.10;;;;;;;4.53;100.00;99429.95;109361;1254;59994;-74
2024/02/16 07:40:50;;;;;;;60.90;47.50;;;;;;;4.61;100.00;99426.13;109418;1254;65314;-76
2024/02/16 07:43:17;;;;;;;62.20;51.00;;;;;;;4.69;100.00;99425.16;109389;1254;59079;-74
2024/02/16 07:45:44;;;;;;;59.90;48.30;;;;;;;4.78;100.00;99429.95;109329;1254;59426;-74
2024/02/16 07:48:11;;;;;;;60.20;49.80;;;;;;;4.86;100.00;99423.99;109336;1254;65939;-74
2024/02/16 07:50:37;;;;;;;56.70;45.60;;;;;;;4.96;100.00;99424.18;109322;1254;60864;-74
2024/02/16 07:53:04;;;;;;;58.20;47.40;;;;;;;5.02;100.00;99426.39;109041;1254;65187;-75
2024/02/16 07:55:30;;;;;;;55.80;45.70;;;;;;;5.10;100.00;99427.69;109274;1254;59099;-74
2024/02/16 07:57:57;;;;;;;54.00;44.70;;;;;;;5.19;100.00;99428.92;109317;1254;59773;-75
2024/02/16 08:00:25;;;;;;;60.20;45.60;;;;;;;5.27;100.00;99428.43;109325;1254;65676;-74
2024/02/16 08:02:51;;;;;;;55.60;44.90;;;;;;;5.35;100.00;99426.02;109070;1254;61030;-74
2024/02/16 08:05:19;;;;;;;58.20;45.00;;;;;;;5.40;100.00;99422.12;109255;1254;64985;-74
2024/02/16 08:07:46;;;;;;;60.80;45.20;;;;;;;5.47;100.00;99425.22;109250;1254;59024;-74
2024/02/16 08:10:13;;;;;;;55.70;43.70;;;;;;;5.54;100.00;99424.22;109329;1254;59006;-74
2024/02/16 08:12:40;;;;;;;72.00;56.20;;;;;;;5.63;100.00;99424.05;109321;1254;67063;-74
2024/02/16 08:15:07;;;;;;;89.30;65.50;;;;;;;5.72;100.00;99426.88;109293;1254;60132;-75
2024/02/16 08:17:35;;;;;;;62.30;49.50;;;;;;;5.81;100.00;99427.73;109052;1254;63966;-76
2024/02/16 08:20:02;;;;;;;54.00;44.60;;;;;;;5.89;100.00;99431.63;109284;1254;59008;-75
2024/02/16 08:22:29;;;;;;;62.50;47.20;;;;;;;5.98;100.00;99425.31;109297;1254;59042;-75
2024/02/16 08:24:56;;;;;;;59.60;46.60;;;;;;;6.06;100.00;99423.25;109297;1254;67086;-75
2024/02/16 08:27:22;;;;;;;61.30;48.20;;;;;;;6.14;100.00;99422.17;109336;1254;61109;-75
2024/02/16 08:29:50;;;;;;;54.30;44.80;;;;;;;6.23;100.00;99420.23;109164;1254;64898;-75
2024/02/16 08:32:17;;;;;;;56.10;44.00;;;;;;;6.31;100.00;99421.13;109288;1254;59049;-75
2024/02/16 08:34:44;;;;;;;55.80;43.80;;;;;;;6.37;100.00;99420.83;109297;1254;59013;-74
2024/02/16 08:37:11;;;;;;;58.40;44.40;;;;;;;6.44;100.00;99420.54;109304;1255;66991;-75
2024/02/16 08:39:38;;;;;;;53.30;42.20;;;;;;;6.51;100.00;99418.31;109323;1254;61019;-75
2024/02/16 08:42:05;;;;;;;58.20;46.90;;;;;;;6.59;100.00;99421.31;109276;1254;65254;-77
2024/02/16 08:44:32;;;;;;;54.50;43.70;;;;;;;6.68;100.00;99416.86;109262;1254;58974;-75
2024/02/16 08:46:58;;;;;;;62.40;50.00;;;;;;;6.76;100.00;99415.10;109291;1254;58920;-75
2024/02/16 08:49:25;;;;;;;52.80;43.30;;;;;;;6.85;100.00;99415.05;109308;1254;65832;-74
2024/02/16 08:51:52;;;;;;;57.50;47.20;;;;;;;6.92;100.00;99417.20;109048;1258;59955;-75
2024/02/16 08:54:18;;;;;;;60.40;46.90;;;;;;;6.98;100.00;99416.39;109268;1254;64051;-76
2024/02/16 08:56:45;;;;;;;58.60;46.00;;;;;;;7.07;100.00;99415.80;109291;1254;58946;-75
2024/02/16 08:59:12;;;;;;;55.80;45.80;;;;;;;7.16;100.00;99418.23;109300;1254;59822;-75
2024/02/16 09:01:39;;;;;;;48.50;39.90;;;;;;;7.24;100.00;99414.66;109287;1254;65770;-75
2024/02/16 09:04:06;;;;;;;47.70;39.80;;;;;;;7.34;100.00;99414.41;109074;1254;60016;-76
2024/02/16 09:06:34;;;;;;;49.00;41.10;;;;;;;7.43;100.00;99415.52;109333;1254;74252;-79
2024/02/16 09:09:01;;;;;;;49.70;40.70;;;;;;;7.53;100.00;99413.48;109279;1254;58977;-78
2024/02/16 09:11:28;;;;;;;44.90;36.40;;;;;;;7.65;100.00;99409.55;109029;1254;59048;-76
2024/02/16 09:13:55;;;;;;;45.60;37.60;;;;;;;7.75;100.00;99403.61;109273;1254;67031;-78
2024/02/16 09:16:21;;;;;;;41.80;35.80;;;;;;;7.82;100.00;99403.23;109286;1254;61492;-78
2024/02/16 09:18:48;;;;;;;49.30;36.70;;;;;;;7.89;100.00;99401.98;109311;1254;64712;-76
2024/02/16 09:21:14;;;;;;;43.30;35.40;;;;;;;7.99;100.00;99400.65;109281;1254;59184;-77
2024/02/16 09:23:41;;;;;;;42.30;35.90;;;;;;;8.09;100.00;99400.85;109273;1254;59020;-77
2024/02/16 09:26:11;;;;;;;49.60;37.40;;;;;;;8.21;100.00;99403.95;109278;1254;66680;-78
2024/02/16 09:28:44;;;;;;;41.80;34.30;;;;;;;8.33;100.00;99398.55;109276;1254;60037;-76
2024/02/16 09:31:14;;;;;;;43.20;35.60;;;;;;;8.45;100.00;99392.32;109256;1254;65098;-77
2024/02/16 09:33:41;;;;;;;43.90;34.40;;;;;;;8.57;100.00;99395.41;109387;1254;58905;-77
2024/02/16 09:36:08;;;;;;;40.00;34.00;;;;;;;8.69;100.00;99402.41;109365;1254;59089;-78
2024/02/16 09:38:34;;;;;;;40.00;34.10;;;;;;;8.80;100.00;99406.27;109401;1254;67020;-77
2024/02/16 09:41:02;;;;;;;42.30;33.30;;;;;;;8.88;100.00;99404.90;109398;1254;60405;-77
2024/02/16 09:43:29;;;;;;;39.90;32.60;;;;;;;8.98;100.00;99406.86;109424;1254;65226;-77
2024/02/16 09:45:58;;;;;;;41.60;33.40;;;;;;;9.09;100.00;99406.63;109371;1254;59346;-76
2024/02/16 09:48:29;;;;;;;40.20;33.60;;;;;;;9.16;100.00;99406.77;109098;1254;58932;-77
2024/02/16 09:51:00;;;;;;;39.90;33.50;;;;;;;9.25;100.00;99408.77;109438;1254;67042;-77
2024/02/16 09:53:28;;;;;;;40.40;33.40;;;;;;;9.35;100.00;99410.20;109387;1254;61027;-75
2024/02/16 09:55:56;;;;;;;38.80;32.70;;;;;;;9.46;100.00;99408.67;109423;1254;64076;-77
2024/02/16 09:58:23;;;;;;;40.50;32.80;;;;;;;9.55;100.00;99409.77;109411;1254;59188;-76
2024/02/16 10:00:55;;;;;;;41.40;33.60;;;;;;;9.64;100.00;99411.25;109385;1254;58968;-77
2024/02/16 10:03:26;;;;;;;42.60;33.40;;;;;;;9.73;100.00;99410.55;109390;1254;65904;-78
2024/02/16 10:06:04;;;;;;;36.30;29.80;;;;;;;9.81;100.00;99407.23;109377;1254;59994;-75
2024/02/16 10:08:31;;;;;;;38.90;31.60;;;;;;;9.92;100.00;99406.44;109409;1254;64022;-76
2024/02/16 10:11:03;;;;;;;39.40;30.70;;;;;;;10.04;100.00;99406.24;109376;1254;59010;-77
2024/02/16 10:13:31;;;;;;;36.30;29.60;;;;;;;10.16;100.00;99405.92;109384;1254;59061;-77
2024/02/16 10:16:09;;;;;;;34.60;29.40;;;;;;;10.27;100.00;99403.86;109345;1254;66984;-76
2024/02/16 10:18:37;;;;;;;49.40;36.30;;;;;;;10.40;100.00;99402.73;109367;1254;60222;-77
2024/02/16 10:21:04;;;;;;;40.80;32.00;;;;;;;10.55;100.00;99395.67;109363;1254;63869;-76
2024/02/16 10:23:32;;;;;;;39.20;32.20;;;;;;;10.63;100.00;99396.20;109370;1254;59331;-77
2024/02/16 10:25:59;;;;;;;35.30;29.70;;;;;;;10.71;100.00;99394.15;109398;1254;58957;-77
2024/02/16 10:28:30;;;;;;;38.10;30.50;;;;;;;10.80;100.00;99393.80;109417;1254;67023;-77
2024/02/16 10:31:02;;;;;;;32.60;27.70;;;;;;;10.89;100.00;99392.64;109404;1254;60165;-78
2024/02/16 10:33:29;;;;;;;39.70;29.60;;;;;;;10.97;100.00;99387.54;109385;1254;64041;-78
2024/02/16 10:35:59;;;;;;;32.30;27.60;;;;;;;11.06;100.00;99378.84;109027;1258;59189;-77
2024/02/16 10:38:27;;;;;;;33.10;28.70;;;;;;;11.16;100.00;99374.84;109065;1259;59027;-77
2024/02/16 10:40:56;;;;;;;35.80;27.80;;;;;;;11.28;100.00;99372.64;108943;1259;65985;-77
2024/02/16 10:43:24;;;;;;;35.50;27.80;;;;;;;11.39;100.00;99376.36;109030;1259;61172;-76
2024/02/16 10:45:52;;;;;;;32.60;26.80;;;;;;;11.47;100.00;99374.63;109034;1258;64094;-77
2024/02/16 10:48:19;;;;;;;33.30;28.60;;;;;;;11.54;100.00;99371.17;108979;1258;59337;-78
2024/02/16 10:50:46;;;;;;;32.10;25.40;;;;;;;11.61;100.00;99369.27;109022;1258;59042;-78
2024/02/16 10:53:23;;;;;;;30.80;25.50;;;;;;;11.68;100.00;99369.50;109041;1258;65936;-77
2024/02/16 10:55:50;;;;;;;30.40;24.10;;;;;;;11.78;100.00;99365.46;109019;1258;61007;-78
2024/02/16 10:58:18;;;;;;;28.00;23.20;;;;;;;11.87;100.00;99363.46;109023;1258;64996;-78
2024/02/16 11:00:55;;;;;;;26.10;22.20;;;;;;;11.95;100.00;99363.66;108991;1258;59049;-78
2024/02/16 11:03:24;;;;;;;29.50;21.90;;;;;;;12.06;100.00;99361.66;108980;1258;58993;-76
2024/02/16 11:05:51;;;;;;;27.50;20.30;;;;;;;12.17;100.00;99358.61;108960;1258;67024;-78
2024/02/16 11:08:20;;;;;;;26.90;20.30;;;;;;;12.30;100.00;99352.73;109317;1254;61021;-76